createdAt,value
2017-08-28T07:30:35.773Z,355
2017-08-28T07:31:46.060Z,355
2017-08-28T07:32:56.350Z,355
2017-08-28T07:34:06.640Z,355
2017-08-28T07:35:16.895Z,355
2017-08-28T07:36:26.790Z,355
2017-08-28T07:37:37.307Z,355
2017-08-28T07:38:47.593Z,355
2017-08-28T07:39:57.877Z,355
2017-08-28T07:41:08.210Z,360
2017-08-28T07:42:18.102Z,360
2017-08-28T07:43:28.512Z,360
2017-08-28T07:44:38.815Z,360
2017-08-28T07:45:49.076Z,360
2017-08-28T07:46:59.343Z,365
2017-08-28T07:48:09.888Z,365
2017-08-28T07:49:20.170Z,365
2017-08-28T07:50:29.802Z,365
2017-08-28T07:51:40.096Z,365
2017-08-28T07:52:50.375Z,365
2017-08-28T07:54:00.916Z,370
2017-08-28T07:55:11.203Z,370
2017-08-28T07:56:21.489Z,370
2017-08-28T07:57:31.822Z,370
2017-08-28T07:58:41.785Z,370
2017-08-28T07:59:52.318Z,375
2017-08-28T08:01:02.608Z,375
2017-08-28T08:02:12.934Z,375
2017-08-28T08:03:23.224Z,380
2017-08-28T08:04:33.544Z,380
2017-08-28T08:05:44.112Z,380
2017-08-28T08:06:54.401Z,385
2017-08-28T08:08:04.715Z,380
2017-08-28T08:09:15.014Z,385
2017-08-28T08:10:24.979Z,385
2017-08-28T08:11:34.870Z,390
2017-08-28T08:12:44.833Z,400
2017-08-28T08:13:55.117Z,405
2017-08-28T08:15:05.081Z,410
2017-08-28T08:16:14.740Z,425
2017-08-28T08:17:25.305Z,420
2017-08-28T08:18:35.275Z,450
2017-08-28T08:19:45.579Z,460
2017-08-28T08:20:55.866Z,435
2017-08-28T08:22:05.843Z,440
2017-08-28T08:23:16.042Z,690
2017-08-28T08:24:26.332Z,745
2017-08-28T08:25:36.602Z,790
2017-08-28T08:26:46.873Z,980
2017-08-28T08:27:56.855Z,1030
2017-08-28T08:29:07.072Z,1090
2017-08-28T08:30:17.046Z,960
2017-08-28T08:31:27.330Z,970
2017-08-28T08:32:37.293Z,495
2017-08-28T08:33:47.250Z,525
2017-08-28T08:34:57.477Z,565
2017-08-28T08:36:07.448Z,960
2017-08-28T08:37:17.742Z,1160
2017-08-28T08:38:28.046Z,630
2017-08-28T08:39:38.343Z,530
2017-08-28T08:40:48.874Z,525
2017-08-28T08:41:58.526Z,515
2017-08-28T08:43:08.193Z,515
2017-08-28T08:44:18.160Z,570
2017-08-28T08:45:28.447Z,740
2017-08-28T08:46:38.668Z,820
2017-08-28T08:47:48.946Z,640
2017-08-28T08:48:58.963Z,595
2017-08-28T08:50:08.944Z,760
2017-08-28T08:51:19.248Z,980
2017-08-28T08:52:29.493Z,1420
2017-08-28T08:53:39.450Z,1235
2017-08-28T08:54:49.441Z,1540
2017-08-28T08:55:59.766Z,1515
2017-08-28T08:57:09.748Z,1510
2017-08-28T08:58:20.311Z,1560
2017-08-28T08:59:29.648Z,1570
2017-08-28T09:00:39.929Z,1605
2017-08-28T09:01:50.197Z,1625
2017-08-28T09:03:00.485Z,1600
2017-08-28T09:04:11.044Z,1315
2017-08-28T09:05:21.351Z,545
2017-08-28T09:06:31.633Z,525
2017-08-28T09:07:41.921Z,560
2017-08-28T09:08:51.907Z,535
2017-08-28T09:10:02.459Z,530
2017-08-28T09:11:12.436Z,540
2017-08-28T09:12:22.740Z,555
2017-08-28T09:13:32.723Z,605
2017-08-28T09:14:43.014Z,1795
2017-08-28T09:15:53.568Z,1730
2017-08-28T09:17:03.876Z,1775
2017-08-28T09:18:14.186Z,1835
2017-08-28T09:19:24.501Z,1830
2017-08-28T09:20:34.650Z,1800
2017-08-28T09:21:44.874Z,1900
2017-08-28T09:22:55.170Z,1845
2017-08-28T09:24:05.460Z,1820
2017-08-28T09:25:15.481Z,1940
2017-08-28T09:26:25.775Z,1180
2017-08-28T09:27:36.373Z,1945
2017-08-28T09:28:46.673Z,1980
2017-08-28T09:29:56.995Z,1935
2017-08-28T09:31:06.972Z,735
2017-08-28T09:32:16.974Z,1055
2017-08-28T09:33:27.517Z,1885
2017-08-28T09:34:37.802Z,710
2017-08-28T09:35:48.118Z,1850
2017-08-28T09:36:58.417Z,1625
2017-08-28T09:38:08.401Z,685
2017-08-28T09:39:18.623Z,655
2017-08-28T09:40:28.934Z,665
2017-08-28T09:41:39.226Z,765
2017-08-28T09:42:49.519Z,2205
2017-08-28T09:43:59.803Z,2120
2017-08-28T09:45:10.045Z,2195
2017-08-28T09:46:20.343Z,2280
2017-08-28T09:47:30.643Z,2305
2017-08-28T09:48:40.948Z,2270
2017-08-28T09:49:50.291Z,2250
2017-08-28T09:51:00.846Z,2305
2017-08-28T09:52:11.205Z,2375
2017-08-28T09:53:21.189Z,2375
2017-08-28T09:54:31.175Z,2340
2017-08-28T09:55:41.479Z,2360
2017-08-28T09:56:52.075Z,2400
2017-08-28T09:58:02.363Z,2365
2017-08-28T09:59:12.312Z,2360
2017-08-28T10:00:22.304Z,2360
2017-08-28T10:01:32.608Z,2390
2017-08-28T10:02:43.152Z,2405
2017-08-28T10:03:53.134Z,2315
2017-08-28T10:05:03.429Z,2315
2017-08-28T10:06:13.593Z,2330
2017-08-28T10:07:23.599Z,2320
2017-08-28T10:08:34.154Z,2310
2017-08-28T10:09:44.455Z,2360
2017-08-28T10:10:54.413Z,2350
2017-08-28T10:12:04.409Z,2395
2017-08-28T10:13:14.719Z,2420
2017-08-28T10:14:24.956Z,2410
2017-08-28T10:15:35.286Z,2515
2017-08-28T10:16:45.590Z,2565
2017-08-28T10:17:55.574Z,2590
2017-08-28T10:19:05.879Z,2560
2017-08-28T10:20:16.445Z,2485
2017-08-28T10:21:26.439Z,2465
2017-08-28T10:22:36.765Z,2485
2017-08-28T10:23:47.061Z,2455
2017-08-28T10:24:57.351Z,2395
2017-08-28T10:26:07.284Z,2415
2017-08-28T10:27:17.551Z,2400
2017-08-28T10:28:27.854Z,2215
2017-08-28T10:29:38.153Z,2400
2017-08-28T10:30:48.463Z,2485
2017-08-28T10:31:58.374Z,2575
2017-08-28T10:33:08.662Z,2180
2017-08-28T10:34:18.947Z,1875
2017-08-28T10:35:29.250Z,2135
2017-08-28T10:36:39.542Z,2660
2017-08-28T10:37:50.054Z,2760
2017-08-28T10:39:00.348Z,2665
2017-08-28T10:40:10.626Z,2675
2017-08-28T10:41:20.926Z,2700
2017-08-28T10:42:30.940Z,2680
2017-08-28T10:43:41.533Z,2640
2017-08-28T10:44:51.516Z,2655
2017-08-28T10:46:01.819Z,2715
2017-08-28T10:47:11.814Z,2430
2017-08-28T10:48:21.792Z,2780
2017-08-28T10:49:32.026Z,2755
2017-08-28T10:50:41.710Z,2575
2017-08-28T10:51:52.014Z,1465
2017-08-28T10:53:02.331Z,1510
2017-08-28T10:54:12.622Z,2890
2017-08-28T10:55:22.854Z,2765
2017-08-28T10:56:32.833Z,2765
2017-08-28T10:57:43.126Z,1825
2017-08-28T10:58:53.418Z,2775
2017-08-28T11:00:03.719Z,2700
2017-08-28T11:01:13.657Z,2035
2017-08-28T11:02:24.032Z,2825
2017-08-28T11:03:34.360Z,2960
2017-08-28T11:04:44.675Z,3065
2017-08-28T11:05:54.973Z,3090
2017-08-28T11:07:05.215Z,3090
2017-08-28T11:08:15.207Z,3025
2017-08-28T11:09:25.181Z,3005
2017-08-28T11:10:34.858Z,3010
2017-08-28T11:11:45.167Z,2980
2017-08-28T11:12:55.711Z,2960
2017-08-28T11:14:05.673Z,2975
2017-08-28T11:15:15.954Z,2950
2017-08-28T11:16:26.260Z,2940
2017-08-28T11:17:36.553Z,2855
2017-08-28T11:18:47.101Z,2805
2017-08-28T11:19:57.074Z,3025
2017-08-28T11:21:07.069Z,3010
2017-08-28T11:22:17.054Z,1245
2017-08-28T11:23:27.365Z,890
2017-08-28T11:24:37.970Z,1760
2017-08-28T11:25:47.635Z,800
2017-08-28T11:26:57.620Z,820
2017-08-28T11:28:07.929Z,800
2017-08-28T11:29:18.231Z,3040
2017-08-28T11:30:28.467Z,805
2017-08-28T11:31:38.424Z,770
2017-08-28T11:32:48.410Z,750
2017-08-28T11:33:58.373Z,785
2017-08-28T11:35:08.359Z,935
2017-08-28T11:36:18.903Z,2745
2017-08-28T11:37:29.196Z,3315
2017-08-28T11:38:39.498Z,3165
2017-08-28T11:39:49.800Z,3130
2017-08-28T11:41:00.081Z,3115
2017-08-28T11:42:10.303Z,3080
2017-08-28T11:43:20.576Z,3050
2017-08-28T11:44:30.861Z,3150
2017-08-28T11:45:41.161Z,3245
2017-08-28T11:46:50.824Z,3195
2017-08-28T11:48:01.378Z,3200
2017-08-28T11:49:11.684Z,3240
2017-08-28T11:50:21.968Z,3240
2017-08-28T11:51:31.627Z,3235
2017-08-28T11:52:41.616Z,3160
2017-08-28T11:53:52.166Z,3175
2017-08-28T11:55:02.453Z,3250
2017-08-28T11:56:12.766Z,3275
2017-08-28T11:57:23.065Z,3275
2017-08-28T11:58:33.035Z,3275
2017-08-28T11:59:43.277Z,3320
2017-08-28T12:00:53.262Z,3470
2017-08-28T12:02:03.577Z,3605
2017-08-28T12:03:13.864Z,3595
2017-08-28T12:04:24.158Z,3370
2017-08-28T12:05:34.756Z,3215
2017-08-28T12:06:45.050Z,3245
2017-08-28T12:07:55.036Z,3215
2017-08-28T12:09:05.349Z,3350
2017-08-28T12:10:15.329Z,3470
2017-08-28T12:11:25.880Z,3440
2017-08-28T12:12:35.857Z,3285
2017-08-28T12:13:46.171Z,1540
2017-08-28T12:14:56.166Z,795
2017-08-28T12:16:06.136Z,760
2017-08-28T12:17:16.662Z,715
2017-08-28T12:18:26.955Z,710
2017-08-28T12:19:37.246Z,745
2017-08-28T12:20:47.559Z,780
2017-08-28T12:21:57.836Z,865
2017-08-28T12:23:08.386Z,3205
2017-08-28T12:24:18.675Z,3375
2017-08-28T12:25:28.966Z,3300
2017-08-28T12:26:39.259Z,3215
2017-08-28T12:27:49.544Z,3235
2017-08-28T12:29:00.098Z,3225
2017-08-28T12:30:10.092Z,3280
2017-08-28T12:31:20.087Z,3375
2017-08-28T12:32:30.374Z,3345
2017-08-28T12:33:40.686Z,3385
2017-08-28T12:34:51.223Z,3440
2017-08-28T12:36:01.535Z,3540
2017-08-28T12:37:11.824Z,3605
2017-08-28T12:38:22.115Z,3600
2017-08-28T12:39:32.407Z,3590
2017-08-28T12:40:42.643Z,3480
2017-08-28T12:41:52.932Z,3450
2017-08-28T12:43:02.850Z,3545
2017-08-28T12:44:12.846Z,3635
2017-08-28T12:45:22.826Z,3570
2017-08-28T12:46:33.368Z,3480
2017-08-28T12:47:43.656Z,3445
2017-08-28T12:48:53.942Z,3465
2017-08-28T12:50:04.220Z,3440
2017-08-28T12:51:13.882Z,3225
2017-08-28T12:52:24.427Z,2945
2017-08-28T12:53:34.407Z,2875
2017-08-28T12:54:44.692Z,3100
2017-08-28T12:55:54.984Z,3415
2017-08-28T12:57:05.271Z,3480
2017-08-28T12:58:15.831Z,3360
2017-08-28T12:59:26.128Z,3265
2017-08-28T13:00:36.411Z,3275
2017-08-28T13:01:46.684Z,3290
2017-08-28T13:02:57.021Z,3285
2017-08-28T13:04:07.579Z,3330
2017-08-28T13:05:17.876Z,3390
2017-08-28T13:06:28.192Z,3430
2017-08-28T13:07:38.156Z,3345
2017-08-28T13:08:48.143Z,3455
2017-08-28T13:09:58.045Z,3660
2017-08-28T13:11:07.739Z,3670
2017-08-28T13:12:18.051Z,3545
2017-08-28T13:13:28.377Z,3415
2017-08-28T13:14:38.703Z,3245
2017-08-28T13:15:48.918Z,3150
2017-08-28T13:16:59.219Z,3250
2017-08-28T13:18:09.505Z,3310
2017-08-28T13:19:19.815Z,3460
2017-08-28T13:20:30.101Z,3385
2017-08-28T13:21:40.333Z,3005
2017-08-28T13:22:50.638Z,3370
2017-08-28T13:24:00.954Z,3460
2017-08-28T13:25:11.253Z,3515
2017-08-28T13:26:21.237Z,3485
2017-08-28T13:27:31.781Z,3425
2017-08-28T13:28:41.754Z,3395
2017-08-28T13:29:52.055Z,3430
2017-08-28T13:31:02.045Z,3460
2017-08-28T13:32:11.715Z,3425
2017-08-28T13:33:22.257Z,3425
2017-08-28T13:34:32.250Z,3415
2017-08-28T13:35:42.545Z,3485
2017-08-28T13:36:52.827Z,3515
2017-08-28T13:38:02.818Z,3455
2017-08-28T13:39:13.375Z,3455
2017-08-28T13:40:23.345Z,3470
2017-08-28T13:41:33.306Z,3405
2017-08-28T13:42:43.603Z,3280
2017-08-28T13:43:53.577Z,3230
2017-08-28T13:45:04.140Z,3170
2017-08-28T13:46:14.441Z,3105
2017-08-28T13:47:24.416Z,3125
2017-08-28T13:48:34.722Z,3240
2017-08-28T13:49:45.013Z,3375
2017-08-28T13:50:55.562Z,3440
2017-08-28T13:52:05.862Z,3440
2017-08-28T13:53:16.165Z,3350
2017-08-28T13:54:26.151Z,3285
2017-08-28T13:55:36.450Z,3220
2017-08-28T13:56:46.683Z,3185
2017-08-28T13:57:56.995Z,3170
2017-08-28T13:59:07.276Z,3145
2017-08-28T14:00:17.243Z,3140
2017-08-28T14:01:27.222Z,3150
2017-08-28T14:02:37.754Z,3140
2017-08-28T14:03:48.057Z,705
2017-08-28T14:04:58.038Z,700
2017-08-28T14:06:08.338Z,705
2017-08-28T14:07:18.315Z,1855
2017-08-28T14:08:28.221Z,2325
2017-08-28T14:09:38.513Z,3050
2017-08-28T14:10:48.810Z,3035
2017-08-28T14:11:58.809Z,3035
2017-08-28T14:13:08.770Z,3110
2017-08-28T14:14:18.999Z,3165
2017-08-28T14:15:29.275Z,3090
2017-08-28T14:16:39.304Z,2685
2017-08-28T14:17:49.590Z,2900
2017-08-28T14:18:59.876Z,720
2017-08-28T14:20:10.414Z,2215
2017-08-28T14:21:20.387Z,2895
2017-08-28T14:22:30.041Z,2940
2017-08-28T14:23:40.026Z,3020
2017-08-28T14:24:50.318Z,3095
2017-08-28T14:26:00.532Z,3080
2017-08-28T14:27:10.816Z,2995
2017-08-28T14:28:20.792Z,2870
2017-08-28T14:29:31.080Z,2820
2017-08-28T14:30:40.740Z,2850
2017-08-28T14:31:51.279Z,2870
2017-08-28T14:33:01.569Z,2790
2017-08-28T14:34:11.859Z,2740
2017-08-28T14:35:22.147Z,2780
2017-08-28T14:36:32.430Z,2855
2017-08-28T14:37:42.980Z,2900
2017-08-28T14:38:52.635Z,2935
2017-08-28T14:40:02.610Z,2925
2017-08-28T14:41:12.914Z,2855
2017-08-28T14:42:22.897Z,2800
2017-08-28T14:43:33.442Z,2755
2017-08-28T14:44:43.428Z,2775
2017-08-28T14:45:53.741Z,2765
2017-08-28T14:47:03.723Z,2745
2017-08-28T14:48:14.008Z,2715
2017-08-28T14:49:24.252Z,2690
2017-08-28T14:50:34.675Z,2520
2017-08-28T14:51:44.338Z,2490
2017-08-28T14:52:54.627Z,2485
2017-08-28T14:54:04.898Z,2545
2017-08-28T14:55:15.122Z,2590
2017-08-28T14:56:25.098Z,2565
2017-08-28T14:57:35.402Z,2590
2017-08-28T14:58:45.701Z,2600
2017-08-28T14:59:55.681Z,2630
2017-08-28T15:01:06.236Z,2585
2017-08-28T15:02:16.522Z,2580
2017-08-28T15:03:26.508Z,2615
2017-08-28T15:04:36.496Z,2585
2017-08-28T15:05:46.790Z,2585
2017-08-28T15:06:57.349Z,2510
2017-08-28T15:08:07.327Z,2455
2017-08-28T15:09:17.283Z,2445
2017-08-28T15:10:27.581Z,2450
2017-08-28T15:11:38.039Z,2435
2017-08-28T15:12:48.579Z,2445
2017-08-28T15:13:58.873Z,2425
2017-08-28T15:15:08.852Z,2395
2017-08-28T15:16:18.825Z,2365
2017-08-28T15:17:29.162Z,2315
2017-08-28T15:18:39.740Z,2340
2017-08-28T15:19:49.708Z,2320
2017-08-28T15:20:59.686Z,2305
2017-08-28T15:22:09.347Z,2305
2017-08-28T15:23:19.641Z,2310
2017-08-28T15:24:29.614Z,2295
2017-08-28T15:25:39.585Z,2220
2017-08-28T15:26:49.567Z,2200
2017-08-28T15:27:59.233Z,2190
2017-08-28T15:29:09.543Z,2180
2017-08-28T15:30:20.095Z,2205
2017-08-28T15:31:30.070Z,2180
2017-08-28T15:32:40.357Z,2020
2017-08-28T15:33:50.646Z,1935
2017-08-28T15:35:00.313Z,2060
2017-08-28T15:36:10.547Z,2170
2017-08-28T15:37:20.857Z,2110
2017-08-28T15:38:31.146Z,2000
2017-08-28T15:39:41.438Z,2040
2017-08-28T15:40:51.716Z,2080
2017-08-28T15:42:01.933Z,1965
2017-08-28T15:43:11.599Z,1915
2017-08-28T15:44:21.584Z,1875
2017-08-28T15:45:31.887Z,1745
2017-08-28T15:46:42.181Z,1800
2017-08-28T15:47:52.723Z,1815
2017-08-28T15:49:02.715Z,1855
2017-08-28T15:50:13.018Z,1820
2017-08-28T15:51:23.316Z,1785
2017-08-28T15:52:33.632Z,1885
2017-08-28T15:53:43.846Z,1905
2017-08-28T15:54:53.510Z,1840
2017-08-28T15:56:03.174Z,1770
2017-08-28T15:57:13.141Z,1705
2017-08-28T15:58:23.418Z,1685
2017-08-28T15:59:33.944Z,1660
2017-08-28T16:00:44.231Z,1610
2017-08-28T16:01:54.199Z,1635
2017-08-28T16:03:04.158Z,1590
2017-08-28T16:04:13.839Z,1590
2017-08-28T16:05:24.075Z,1575
2017-08-28T16:06:34.376Z,1505
2017-08-28T16:07:44.695Z,1395
2017-08-28T16:08:54.664Z,1420
2017-08-28T16:10:04.619Z,1390
2017-08-28T16:11:15.155Z,1450
2017-08-28T16:12:25.445Z,1520
2017-08-28T16:13:35.415Z,1450
2017-08-28T16:14:45.706Z,1455
2017-08-28T16:15:55.993Z,1430
2017-08-28T16:17:06.547Z,1390
2017-08-28T16:18:16.847Z,1135
2017-08-28T16:19:26.503Z,1170
2017-08-28T16:20:36.800Z,1305
2017-08-28T16:21:47.101Z,1275
2017-08-28T16:22:57.309Z,1220
2017-08-28T16:24:07.280Z,1230
2017-08-28T16:25:17.564Z,1150
2017-08-28T16:26:27.539Z,1125
2017-08-28T16:27:37.834Z,1230
2017-08-28T16:28:48.382Z,1255
2017-08-28T16:29:58.667Z,1285
2017-08-28T16:31:08.648Z,1205
2017-08-28T16:32:18.625Z,1155
2017-08-28T16:33:28.929Z,1065
2017-08-28T16:34:39.460Z,1020
2017-08-28T16:35:49.729Z,1000
2017-08-28T16:36:59.699Z,1105
2017-08-28T16:38:10.012Z,1205
2017-08-28T16:39:20.321Z,1210
2017-08-28T16:40:30.867Z,1175
2017-08-28T16:41:40.848Z,1190
2017-08-28T16:42:50.178Z,1145
2017-08-28T16:44:00.144Z,1090
2017-08-28T16:45:10.426Z,1085
2017-08-28T16:46:20.697Z,1070
2017-08-28T16:47:30.999Z,1025
2017-08-28T16:48:41.287Z,985
2017-08-28T16:49:51.251Z,1025
2017-08-28T16:51:01.238Z,980
2017-08-28T16:52:11.805Z,950
2017-08-28T16:53:22.100Z,975
2017-08-28T16:54:32.067Z,1035
2017-08-28T16:55:42.031Z,905
2017-08-28T16:56:52.339Z,865
2017-08-28T16:58:02.894Z,860
2017-08-28T16:59:13.190Z,870
2017-08-28T17:00:23.500Z,825
2017-08-28T17:01:33.498Z,810
2017-08-28T17:02:43.479Z,790
2017-08-28T17:03:54.049Z,750
2017-08-28T17:05:04.350Z,725
2017-08-28T17:06:14.012Z,735
2017-08-28T17:07:24.002Z,650
2017-08-28T17:08:33.980Z,625
2017-08-28T17:09:44.570Z,665
2017-08-28T17:10:54.570Z,660
2017-08-28T17:12:04.538Z,615
2017-08-28T17:13:14.825Z,600
2017-08-28T17:14:25.122Z,565
2017-08-28T17:15:35.350Z,545
2017-08-28T17:16:45.654Z,525
2017-08-28T17:17:55.631Z,505
2017-08-28T17:19:05.589Z,510
2017-08-28T17:20:15.570Z,480
2017-08-28T17:21:26.129Z,460
2017-08-28T17:22:36.404Z,460
2017-08-28T17:23:46.378Z,435
2017-08-28T17:24:56.716Z,410
2017-08-28T17:26:06.683Z,385
2017-08-28T17:27:17.207Z,380
2017-08-28T17:28:27.495Z,350
2017-08-28T17:29:37.460Z,330
2017-08-28T17:30:47.750Z,315
2017-08-28T17:31:58.050Z,305
2017-08-28T17:33:08.584Z,285
2017-08-28T17:34:18.552Z,260
2017-08-28T17:35:28.887Z,245
2017-08-28T17:36:39.188Z,230
2017-08-28T17:37:49.156Z,215
2017-08-28T17:38:59.412Z,200
2017-08-28T17:40:09.710Z,195
2017-08-28T17:41:20.007Z,185
2017-08-28T17:42:30.006Z,170
2017-08-28T17:43:40.299Z,145
2017-08-28T17:44:50.826Z,120
2017-08-28T17:46:01.153Z,140
2017-08-28T17:47:11.451Z,140
2017-08-28T17:48:21.109Z,120
2017-08-28T17:49:31.406Z,105
2017-08-28T17:50:41.644Z,70
2017-08-28T17:51:51.923Z,50
2017-08-28T17:53:02.200Z,45
2017-08-28T17:54:12.479Z,40
2017-08-28T17:55:22.473Z,40
2017-08-28T17:56:33.030Z,35
2017-08-28T17:57:43.306Z,30
2017-08-28T17:58:53.588Z,30
2017-08-28T18:00:03.884Z,25
2017-08-28T18:01:14.181Z,25
2017-08-28T18:02:24.762Z,20
2017-08-28T18:03:34.402Z,20
2017-08-28T18:04:44.376Z,15
2017-08-28T18:05:54.657Z,15
2017-08-28T18:07:04.617Z,10
2017-08-28T18:08:14.856Z,10
2017-08-28T18:09:25.142Z,10
2017-08-28T18:10:35.455Z,10
2017-08-28T18:11:45.745Z,5
2017-08-28T18:12:55.727Z,5
2017-08-28T18:14:05.954Z,5
2017-08-28T18:15:15.923Z,5
2017-08-28T18:16:25.916Z,5
2017-08-28T18:17:36.206Z,0
2017-08-28T18:18:45.855Z,0
2017-08-28T18:19:56.070Z,0
2017-08-28T18:21:06.341Z,0
2017-08-28T18:22:16.616Z,0
2017-08-28T18:23:26.910Z,0
2017-08-28T18:24:36.891Z,0
2017-08-28T18:25:47.419Z,0
2017-08-28T18:26:57.398Z,0
2017-08-28T18:28:07.368Z,0
2017-08-28T18:29:17.657Z,0
2017-08-28T18:30:27.926Z,0
2017-08-28T18:31:38.464Z,0
2017-08-28T18:32:48.427Z,0
2017-08-28T18:33:58.724Z,0
2017-08-28T18:35:09.005Z,0
2017-08-28T18:36:19.301Z,0
2017-08-28T18:37:29.830Z,0
2017-08-28T18:38:39.787Z,0
2017-08-28T18:39:49.769Z,0
2017-08-28T18:40:59.730Z,0
2017-08-28T18:42:10.016Z,0
2017-08-28T18:43:20.231Z,0
2017-08-28T18:44:30.502Z,0
2017-08-28T18:45:40.797Z,0
2017-08-28T18:46:50.758Z,0
2017-08-28T18:48:01.040Z,0
2017-08-28T18:49:11.647Z,0
2017-08-28T18:50:21.939Z,0
2017-08-28T18:51:32.259Z,0
2017-08-28T18:52:42.542Z,0
2017-08-28T18:53:52.834Z,0
2017-08-28T18:55:03.370Z,0
2017-08-28T18:56:13.672Z,0
2017-08-28T18:57:23.974Z,0
2017-08-28T18:58:34.265Z,0
2017-08-28T18:59:44.567Z,0
2017-08-28T19:00:54.785Z,0
2017-08-28T19:02:04.769Z,0
2017-08-28T19:03:14.731Z,0
2017-08-28T19:04:25.023Z,0
2017-08-28T19:05:34.996Z,0
2017-08-28T19:06:45.234Z,0
2017-08-28T19:07:55.217Z,0
2017-08-28T19:09:04.867Z,0
2017-08-28T19:10:15.140Z,0
2017-08-28T19:11:25.424Z,0
2017-08-28T19:12:35.972Z,0
2017-08-28T19:13:45.946Z,0
2017-08-28T19:14:56.252Z,0
2017-08-28T19:16:06.561Z,0
2017-08-28T19:17:16.848Z,0
2017-08-28T19:18:27.056Z,0
2017-08-28T19:19:36.716Z,0
2017-08-28T19:20:46.725Z,0
2017-08-28T19:21:56.695Z,0
2017-08-28T19:23:06.332Z,0
2017-08-28T19:24:16.874Z,0
2017-08-28T19:25:27.164Z,0
2017-08-28T19:26:37.126Z,0
2017-08-28T19:27:47.211Z,0
2017-08-28T19:28:57.495Z,0
2017-08-28T19:30:08.041Z,0
2017-08-28T19:31:18.340Z,0
2017-08-28T19:32:28.333Z,0
2017-08-28T19:33:38.308Z,0
2017-08-28T19:34:48.599Z,0
2017-08-28T19:35:59.154Z,0
2017-08-28T19:37:09.163Z,0
2017-08-28T19:38:19.169Z,0
2017-08-28T19:39:29.149Z,0
2017-08-28T19:40:39.440Z,0
2017-08-28T19:41:49.680Z,0
2017-08-28T19:42:59.776Z,0
2017-08-28T19:44:10.071Z,0
2017-08-28T19:45:20.060Z,0
2017-08-28T19:46:30.347Z,0
2017-08-28T19:47:40.889Z,0
2017-08-28T19:48:51.199Z,0
2017-08-28T19:50:01.490Z,0
2017-08-28T19:51:11.781Z,0
2017-08-28T19:52:21.763Z,0
2017-08-28T19:53:31.991Z,0
2017-08-28T19:54:42.280Z,0
2017-08-28T19:55:52.247Z,0
2017-08-28T19:57:02.186Z,0
2017-08-28T19:58:12.467Z,0
2017-08-28T19:59:23.025Z,0
2017-08-28T20:00:33.354Z,0
2017-08-28T20:01:43.657Z,0
2017-08-28T20:02:53.947Z,0
2017-08-28T20:04:04.258Z,0
2017-08-28T20:05:14.795Z,0
2017-08-28T20:06:25.090Z,0
2017-08-28T20:07:35.045Z,0
2017-08-28T20:08:45.373Z,0
2017-08-28T20:09:55.664Z,0
2017-08-28T20:11:06.193Z,0
2017-08-28T20:12:16.192Z,0
2017-08-28T20:13:26.484Z,0
2017-08-28T20:14:36.770Z,0
2017-08-28T20:15:47.064Z,0
2017-08-28T20:16:57.277Z,0
2017-08-28T20:18:07.556Z,0
2017-08-28T20:19:17.857Z,0
2017-08-28T20:20:28.160Z,0
2017-08-28T20:21:38.459Z,0
2017-08-28T20:22:48.993Z,0
2017-08-28T20:23:59.319Z,0
2017-08-28T20:25:09.640Z,0
2017-08-28T20:26:19.621Z,0
2017-08-28T20:27:29.919Z,0
2017-08-28T20:28:40.475Z,0
2017-08-28T20:29:50.131Z,0
2017-08-28T20:31:00.440Z,0
2017-08-28T20:32:10.738Z,0
2017-08-28T20:33:20.706Z,0
2017-08-28T20:34:30.912Z,0
2017-08-28T20:35:41.199Z,0
2017-08-28T20:36:51.468Z,0
2017-08-28T20:38:01.746Z,0
2017-08-28T20:39:12.033Z,0
2017-08-28T20:40:21.923Z,0
2017-08-28T20:41:32.203Z,0
2017-08-28T20:42:42.497Z,0
2017-08-28T20:43:52.455Z,0
2017-08-28T20:45:02.125Z,0
2017-08-28T20:46:12.691Z,0
2017-08-28T20:47:22.673Z,0
2017-08-28T20:48:32.647Z,0
2017-08-28T20:49:42.946Z,0
2017-08-28T20:50:53.233Z,0
2017-08-28T20:52:03.456Z,0
2017-08-28T20:53:13.442Z,0
2017-08-28T20:54:23.399Z,0
2017-08-28T20:55:33.678Z,0
2017-08-28T20:56:43.331Z,0
2017-08-28T20:57:53.869Z,0
2017-08-28T20:59:04.150Z,0
2017-08-28T21:00:14.123Z,0
2017-08-28T21:01:24.408Z,0
2017-08-28T21:02:34.727Z,0
2017-08-28T21:03:45.257Z,0
2017-08-28T21:04:55.530Z,0
2017-08-28T21:06:05.790Z,0
2017-08-28T21:07:15.761Z,0
2017-08-28T21:08:26.059Z,0
2017-08-28T21:09:36.275Z,0
2017-08-28T21:10:46.540Z,0
2017-08-28T21:11:56.843Z,0
2017-08-28T21:13:06.477Z,0
2017-08-28T21:14:16.757Z,0
2017-08-28T21:15:26.716Z,0
2017-08-28T21:16:37.003Z,0
2017-08-28T21:17:47.276Z,0
2017-08-28T21:18:57.234Z,0
2017-08-28T21:20:07.521Z,0
2017-08-28T21:21:17.727Z,0
2017-08-28T21:22:28.032Z,0
2017-08-28T21:23:38.313Z,0
2017-08-28T21:24:48.590Z,0
2017-08-28T21:25:58.878Z,0
2017-08-28T21:27:09.421Z,0
2017-08-28T21:28:19.694Z,0
2017-08-28T21:29:29.974Z,0
2017-08-28T21:30:40.265Z,0
2017-08-28T21:31:50.546Z,0
2017-08-28T21:33:00.759Z,0
2017-08-28T21:34:10.746Z,0
2017-08-28T21:35:21.027Z,0
2017-08-28T21:36:31.318Z,0
2017-08-28T21:37:41.586Z,0
2017-08-28T21:38:52.108Z,0
2017-08-28T21:40:02.084Z,0
2017-08-28T21:41:12.086Z,0
2017-08-28T21:42:22.055Z,0
2017-08-28T21:43:32.034Z,0
2017-08-28T21:44:42.591Z,0
2017-08-28T21:45:52.880Z,0
2017-08-28T21:47:02.849Z,0
2017-08-28T21:48:12.817Z,0
2017-08-28T21:49:23.087Z,0
2017-08-28T21:50:33.641Z,0
2017-08-28T21:51:43.941Z,0
2017-08-28T21:52:54.227Z,0
2017-08-28T21:54:03.864Z,0
2017-08-28T21:55:13.821Z,0
2017-08-28T21:56:24.351Z,0
2017-08-28T21:57:34.643Z,0
2017-08-28T21:58:44.288Z,0
2017-08-28T21:59:54.566Z,0
2017-08-28T22:01:04.864Z,0
2017-08-28T22:02:15.401Z,0
2017-08-28T22:03:25.675Z,0
2017-08-28T22:04:35.641Z,0
2017-08-28T22:05:45.930Z,0
2017-08-28T22:06:56.232Z,0
2017-08-28T22:08:06.431Z,0
2017-08-28T22:09:16.393Z,0
2017-08-28T22:10:26.684Z,0
2017-08-28T22:11:36.339Z,0
2017-08-28T22:12:46.657Z,0
2017-08-28T22:13:57.177Z,0
2017-08-28T22:15:06.866Z,0
2017-08-28T22:16:17.155Z,0
2017-08-28T22:17:27.441Z,0
2017-08-28T22:18:37.764Z,0
2017-08-28T22:19:48.312Z,0
2017-08-28T22:20:58.597Z,0
2017-08-28T22:22:08.878Z,0
2017-08-28T22:23:18.833Z,0
2017-08-28T22:24:28.792Z,0
2017-08-28T22:25:39.313Z,0
2017-08-28T22:26:49.601Z,0
2017-08-28T22:27:59.566Z,0
2017-08-28T22:29:09.203Z,0
2017-08-28T22:30:19.502Z,0
2017-08-28T22:31:30.026Z,0
2017-08-28T22:32:40.301Z,0
2017-08-28T22:33:50.276Z,0
2017-08-28T22:35:00.259Z,0
2017-08-28T22:36:10.540Z,0
2017-08-28T22:37:20.434Z,0
2017-08-28T22:38:30.714Z,0
2017-08-28T22:39:40.359Z,0
2017-08-28T22:40:50.015Z,0
2017-08-28T22:41:59.985Z,0
2017-08-28T22:43:10.194Z,0
2017-08-28T22:44:20.488Z,0
2017-08-28T22:45:30.787Z,0
2017-08-28T22:46:40.752Z,0
2017-08-28T22:47:51.033Z,0
2017-08-28T22:49:01.573Z,0
2017-08-28T22:50:11.530Z,0
2017-08-28T22:51:21.830Z,0
2017-08-28T22:52:32.130Z,0
2017-08-28T22:53:41.802Z,0
2017-08-28T22:54:52.339Z,0
2017-08-28T22:56:01.988Z,0
2017-08-28T22:57:12.288Z,0
2017-08-28T22:58:22.558Z,0
2017-08-28T22:59:32.951Z,0
2017-08-28T23:00:43.185Z,0
2017-08-28T23:01:52.522Z,0
2017-08-28T23:03:02.780Z,0
2017-08-28T23:04:13.063Z,0
2017-08-28T23:05:23.126Z,0
2017-08-28T23:06:33.348Z,0
2017-08-28T23:07:43.621Z,0
2017-08-28T23:08:53.571Z,0
2017-08-28T23:10:03.557Z,0
2017-08-28T23:11:13.857Z,0
2017-08-28T23:12:24.378Z,0
2017-08-28T23:13:34.654Z,0
2017-08-28T23:14:44.953Z,0
2017-08-28T23:15:55.232Z,0
2017-08-28T23:17:05.198Z,0
2017-08-28T23:18:15.709Z,0
2017-08-28T23:19:25.970Z,0
2017-08-28T23:20:35.938Z,0
2017-08-28T23:21:45.590Z,0
2017-08-28T23:22:55.852Z,0
2017-08-28T23:24:06.371Z,0
2017-08-28T23:25:16.631Z,0
2017-08-28T23:26:26.592Z,0
2017-08-28T23:27:36.228Z,0
2017-08-28T23:28:46.203Z,0
2017-08-28T23:29:56.725Z,0
2017-08-28T23:31:06.995Z,0
2017-08-28T23:32:16.657Z,0
2017-08-28T23:33:26.910Z,0
2017-08-28T23:34:36.882Z,0
2017-08-28T23:35:47.423Z,0
2017-08-28T23:36:57.721Z,0
2017-08-28T23:38:07.375Z,0
2017-08-28T23:39:17.643Z,0
2017-08-28T23:40:27.927Z,0
2017-08-28T23:41:38.470Z,0
2017-08-28T23:42:48.417Z,0
2017-08-28T23:43:58.684Z,0
2017-08-28T23:45:08.954Z,0